Time;durP1;ratioP1;P1;durP2;ratioP2;P2;SDS_P1;SDS_P2;PMS_P1;PMS_P2;Temp;Humidity;BMP_temperature;BMP_pressure;BME280_temperature;BME280_humidity;BME280_pressure;Samples;Min_cycle;Max_cycle;Signal;HPM_P1;HPM_P2
2022/10/23 03:02:06;;;;;;;0.97;0.70;;;14.00;83.50;;;;;;5508482;22;20916;-77
2022/10/23 03:04:34;;;;;;;0.90;0.70;;;14.00;83.50;;;;;;5052768;28;20920;-77
2022/10/23 03:07:01;;;;;;;0.60;0.60;;;13.90;84.20;;;;;;5053059;28;20442;-77
2022/10/23 03:09:28;;;;;;;0.80;0.80;;;14.00;84.10;;;;;;5052632;28;20815;-78
2022/10/23 03:11:55;;;;;;;0.80;0.70;;;14.00;84.00;;;;;;5052597;28;20458;-78
2022/10/23 03:14:22;;;;;;;0.70;0.70;;;14.00;83.90;;;;;;5052934;28;20447;-78
2022/10/23 03:16:48;;;;;;;0.70;0.60;;;14.00;83.80;;;;;;5054173;28;20972;-78
2022/10/23 03:19:16;;;;;;;0.90;0.70;;;14.10;83.80;;;;;;5052820;28;20442;-77
2022/10/23 03:21:43;;;;;;;0.73;0.70;;;14.10;83.60;;;;;;5052693;28;20482;-78
2022/10/23 03:24:10;;;;;;;0.67;0.67;;;14.20;83.30;;;;;;5052786;28;20451;-78
2022/10/23 03:26:36;;;;;;;0.73;0.73;;;14.20;83.00;;;;;;5052475;28;20952;-78
2022/10/23 03:29:03;;;;;;;0.70;0.60;;;14.20;83.00;;;;;;5052746;28;20453;-78
2022/10/23 03:31:30;;;;;;;1.33;0.70;;;14.20;83.00;;;;;;5052347;28;20973;-78
2022/10/23 03:33:57;;;;;;;0.73;0.73;;;14.20;83.10;;;;;;5052688;28;20457;-78
2022/10/23 03:36:25;;;;;;;0.60;0.60;;;14.20;83.20;;;;;;5052438;28;20799;-78
2022/10/23 03:38:52;;;;;;;1.43;1.23;;;14.20;83.10;;;;;;5052349;28;20961;-78
2022/10/23 03:41:18;;;;;;;0.70;0.70;;;14.30;82.90;;;;;;5052497;28;20470;-78
2022/10/23 03:43:45;;;;;;;0.60;0.60;;;14.30;83.00;;;;;;5053196;28;20450;-78
2022/10/23 03:46:12;;;;;;;0.67;0.67;;;14.30;83.00;;;;;;5056214;28;20450;-78
2022/10/23 03:48:40;;;;;;;0.60;0.60;;;14.30;83.10;;;;;;5056156;28;20439;-78
2022/10/23 03:51:07;;;;;;;0.70;0.70;;;14.30;83.20;;;;;;5056048;28;20799;-78
2022/10/23 03:53:35;;;;;;;0.73;0.73;;;14.30;83.40;;;;;;5056067;28;20470;-78
2022/10/23 03:56:02;;;;;;;0.70;0.67;;;14.20;83.50;;;;;;5056037;28;20802;-78
2022/10/23 03:58:30;;;;;;;1.00;0.60;;;14.30;83.40;;;;;;5056013;28;20443;-78
2022/10/23 04:00:57;;;;;;;0.80;0.80;;;14.30;83.30;;;;;;5056175;28;20536;-78
2022/10/23 04:03:23;;;;;;;0.70;0.70;;;14.20;83.50;;;;;;5056284;28;20470;-78
2022/10/23 04:05:50;;;;;;;0.80;0.80;;;14.20;83.40;;;;;;5056166;28;20469;-78
2022/10/23 04:08:17;;;;;;;1.13;0.70;;;14.20;83.20;;;;;;5056131;28;20442;-78
2022/10/23 04:10:45;;;;;;;1.37;0.70;;;14.30;83.10;;;;;;5055684;28;20470;-78
2022/10/23 04:13:11;;;;;;;0.60;0.60;;;14.30;83.20;;;;;;5055746;28;20451;-78
2022/10/23 04:15:38;;;;;;;0.60;0.60;;;14.30;82.90;;;;;;5055622;28;20442;-78
2022/10/23 04:18:05;;;;;;;0.70;0.70;;;14.30;82.70;;;;;;5055590;28;20826;-78
2022/10/23 04:20:32;;;;;;;0.70;0.70;;;14.30;82.80;;;;;;5055187;28;20442;-78
2022/10/23 04:22:58;;;;;;;0.90;0.67;;;14.30;82.90;;;;;;5055463;28;20479;-78
2022/10/23 04:25:25;;;;;;;0.80;0.80;;;14.20;82.70;;;;;;5055179;28;20950;-78
2022/10/23 04:27:53;;;;;;;0.97;0.70;;;14.20;82.80;;;;;;5055122;28;20938;-78
2022/10/23 04:30:20;;;;;;;0.90;0.80;;;14.10;83.30;;;;;;5055312;28;20450;-78
2022/10/23 04:32:49;;;;;;;0.70;0.70;;;14.00;84.00;;;;;;5055180;28;20458;-78
2022/10/23 04:35:16;;;;;;;0.80;0.70;;;14.00;84.40;;;;;;5055292;28;20451;-78
2022/10/23 04:37:43;;;;;;;0.70;0.60;;;14.00;84.80;;;;;;5055242;28;20847;-78
2022/10/23 04:40:10;;;;;;;0.83;0.70;;;14.00;85.20;;;;;;5055164;28;20496;-78
2022/10/23 04:42:37;;;;;;;0.80;0.80;;;14.10;85.40;;;;;;5054703;28;20849;-78
2022/10/23 04:45:06;;;;;;;0.70;0.70;;;14.20;85.70;;;;;;5055089;28;20446;-78
2022/10/23 04:47:33;;;;;;;1.30;0.70;;;14.20;85.40;;;;;;5054814;28;20442;-78
2022/10/23 04:49:59;;;;;;;1.30;0.60;;;14.20;85.60;;;;;;5055084;28;20446;-78
2022/10/23 04:52:26;;;;;;;0.70;0.70;;;14.30;85.10;;;;;;5054886;28;20463;-79
2022/10/23 04:54:53;;;;;;;0.80;0.80;;;14.30;84.50;;;;;;5054451;28;20453;-78
2022/10/23 04:57:20;;;;;;;0.70;0.70;;;14.40;84.10;;;;;;5054502;28;20848;-78
2022/10/23 04:59:46;;;;;;;0.60;0.60;;;14.30;85.10;;;;;;5054884;28;20450;-75
2022/10/23 05:02:14;;;;;;;0.60;0.60;;;14.40;84.80;;;;;;5054220;28;20497;-78
2022/10/23 05:04:41;;;;;;;0.70;0.70;;;14.40;84.70;;;;;;5055039;28;20469;-77
2022/10/23 05:07:08;;;;;;;0.60;0.60;;;14.40;85.20;;;;;;5054724;28;20458;-78
2022/10/23 05:09:34;;;;;;;0.70;0.70;;;14.40;84.70;;;;;;5054648;28;20443;-78
2022/10/23 05:12:01;;;;;;;2.30;0.80;;;14.30;85.20;;;;;;5054541;28;20462;-78
2022/10/23 05:14:28;;;;;;;0.60;0.60;;;14.30;84.90;;;;;;5054569;28;20810;-78
2022/10/23 05:17:00;;;;;;;0.63;0.63;;;14.30;84.30;;;;;;5054748;28;20447;-78
2022/10/23 05:19:33;;;;;;;1.07;0.70;;;14.40;84.10;;;;;;5054437;28;20427;-77
2022/10/23 05:22:00;;;;;;;0.80;0.70;;;14.40;83.90;;;;;;5054289;28;20827;-78
2022/10/23 05:24:27;;;;;;;0.60;0.60;;;14.30;84.20;;;;;;5054339;28;20450;-78
2022/10/23 05:26:54;;;;;;;0.70;0.60;;;14.30;83.90;;;;;;5054309;28;20458;-77
2022/10/23 05:29:21;;;;;;;1.40;0.73;;;14.30;84.10;;;;;;5054229;28;20496;-77
2022/10/23 05:31:50;;;;;;;0.80;0.70;;;14.30;84.00;;;;;;5054102;28;20479;-77
2022/10/23 05:34:22;;;;;;;0.70;0.70;;;14.20;84.40;;;;;;5054137;28;20451;-77
2022/10/23 05:36:50;;;;;;;0.70;0.60;;;14.30;84.50;;;;;;5054151;28;20438;-79
2022/10/23 05:39:17;;;;;;;0.67;0.67;;;14.30;85.00;;;;;;5054010;28;20458;-77
2022/10/23 05:41:43;;;;;;;0.60;0.60;;;14.20;85.00;;;;;;5053986;28;20470;-77
2022/10/23 05:44:10;;;;;;;0.60;0.60;;;14.10;85.00;;;;;;5053695;28;20957;-78
2022/10/23 05:46:40;;;;;;;0.70;0.70;;;14.00;85.00;;;;;;5054087;28;20451;-78
2022/10/23 05:49:07;;;;;;;0.60;0.60;;;13.90;85.10;;;;;;5053953;28;20451;-77
2022/10/23 05:51:36;;;;;;;0.70;0.70;;;13.90;85.00;;;;;;5054097;28;20489;-77
2022/10/23 05:54:06;;;;;;;0.67;0.67;;;13.90;85.10;;;;;;5054661;28;20443;-78
2022/10/23 05:56:33;;;;;;;0.63;0.63;;;13.90;85.00;;;;;;5054112;28;20443;-78
2022/10/23 05:59:11;;;;;;;0.60;0.60;;;14.00;84.90;;;;;;5053889;28;20477;-78
2022/10/23 06:01:38;;;;;;;0.70;0.67;;;13.90;85.00;;;;;;5053591;28;20491;-79
2022/10/23 06:04:05;;;;;;;0.60;0.60;;;14.00;84.90;;;;;;5053385;28;20853;-78
2022/10/23 06:06:32;;;;;;;0.70;0.70;;;14.10;84.50;;;;;;5052861;28;20449;-79
2022/10/23 06:08:59;;;;;;;0.63;0.60;;;14.00;84.30;;;;;;5053725;28;20449;-76
2022/10/23 06:11:31;;;;;;;0.70;0.60;;;13.90;84.30;;;;;;5054731;28;20585;-79
2022/10/23 06:13:59;;;;;;;0.63;0.63;;;13.70;84.50;;;;;;5054122;28;20502;-78
2022/10/23 06:16:26;;;;;;;0.60;0.60;;;13.50;85.70;;;;;;5054030;28;20454;-78
2022/10/23 06:18:53;;;;;;;0.80;0.77;;;13.70;85.50;;;;;;5053423;28;20450;-78
2022/10/23 06:21:20;;;;;;;0.60;0.60;;;13.80;85.10;;;;;;5053325;28;20459;-78
2022/10/23 06:23:47;;;;;;;0.60;0.60;;;13.90;85.10;;;;;;5053309;28;20493;-78
2022/10/23 06:26:16;;;;;;;0.70;0.60;;;14.00;84.80;;;;;;5053671;28;20454;-78
2022/10/23 06:28:45;;;;;;;0.80;0.70;;;14.10;84.50;;;;;;5053757;28;20455;-79
2022/10/23 06:31:13;;;;;;;0.90;0.80;;;14.20;84.30;;;;;;5053855;28;20829;-78
2022/10/23 06:33:41;;;;;;;0.70;0.70;;;14.20;84.00;;;;;;5053668;28;20443;-78
2022/10/23 06:36:09;;;;;;;0.70;0.70;;;14.30;83.90;;;;;;5053736;28;20804;-77
2022/10/23 06:38:39;;;;;;;0.70;0.70;;;14.40;83.80;;;;;;5053296;28;20470;-77
2022/10/23 06:41:07;;;;;;;0.80;0.80;;;14.50;83.80;;;;;;5053147;28;20478;-77
2022/10/23 06:43:34;;;;;;;0.80;0.70;;;14.50;83.80;;;;;;5052903;28;20482;-77
2022/10/23 06:46:03;;;;;;;0.70;0.70;;;14.60;83.80;;;;;;5053499;28;20447;-78
2022/10/23 06:48:30;;;;;;;1.13;0.87;;;14.60;83.50;;;;;;5053214;28;20508;-77
2022/10/23 06:50:57;;;;;;;0.80;0.70;;;14.60;84.20;;;;;;5053028;28;20463;-78
2022/10/23 06:53:24;;;;;;;0.80;0.70;;;14.70;84.10;;;;;;5053046;28;20438;-78
2022/10/23 06:55:51;;;;;;;0.60;0.60;;;14.70;84.40;;;;;;5055914;28;20458;-78
2022/10/23 06:58:18;;;;;;;0.60;0.60;;;14.60;84.90;;;;;;5056526;28;20445;-78
2022/10/23 07:00:45;;;;;;;0.70;0.63;;;14.60;85.70;;;;;;5055946;28;20478;-78
2022/10/23 07:03:13;;;;;;;0.60;0.60;;;14.70;85.40;;;;;;5056442;28;20471;-79
2022/10/23 07:05:43;;;;;;;1.30;0.70;;;14.90;84.60;;;;;;5056502;28;20443;-78
2022/10/23 07:08:10;;;;;;;0.60;0.60;;;14.90;84.30;;;;;;5057031;28;20501;-78
2022/10/23 07:10:37;;;;;;;2.10;0.80;;;14.80;84.70;;;;;;5055360;28;20454;-79
2022/10/23 07:13:04;;;;;;;0.93;0.70;;;14.90;84.40;;;;;;5056429;28;20442;-78
2022/10/23 07:15:30;;;;;;;0.80;0.80;;;15.00;84.10;;;;;;5055382;28;20446;-78
2022/10/23 07:17:57;;;;;;;0.60;0.60;;;15.30;83.10;;;;;;5056502;28;20482;-79
2022/10/23 07:20:25;;;;;;;0.70;0.70;;;15.50;83.10;;;;;;5058216;28;20446;-79
2022/10/23 07:22:53;;;;;;;0.60;0.60;;;15.90;82.20;;;;;;5057857;28;20482;-78
2022/10/23 07:25:20;;;;;;;0.70;0.70;;;16.40;80.60;;;;;;5059847;28;21009;-78
2022/10/23 07:27:47;;;;;;;0.67;0.67;;;16.90;78.70;;;;;;5061064;28;20875;-78
2022/10/23 07:30:14;;;;;;;0.60;0.53;;;17.00;77.90;;;;;;5056603;28;20458;-78
2022/10/23 07:32:41;;;;;;;0.70;0.70;;;17.00;77.60;;;;;;5056160;28;21000;-78
2022/10/23 07:35:09;;;;;;;0.70;0.70;;;17.10;78.00;;;;;;5056502;28;20450;-78
2022/10/23 07:37:37;;;;;;;0.70;0.70;;;17.40;77.00;;;;;;5056444;28;20473;-77
2022/10/23 07:40:05;;;;;;;0.80;0.70;;;17.20;77.50;;;;;;5056543;28;20447;-78
2022/10/23 07:42:31;;;;;;;0.70;0.60;;;17.20;77.80;;;;;;5056251;28;20524;-78
2022/10/23 07:44:58;;;;;;;0.70;0.50;;;17.20;77.60;;;;;;5056245;28;20447;-78
2022/10/23 07:47:25;;;;;;;0.90;0.70;;;17.10;76.60;;;;;;5056241;28;20862;-78
2022/10/23 07:49:52;;;;;;;1.13;0.70;;;17.30;78.30;;;;;;5055946;28;20934;-78
2022/10/23 07:52:18;;;;;;;0.60;0.50;;;17.80;74.50;;;;;;5056127;28;20469;-78
2022/10/23 07:54:50;;;;;;;0.93;0.63;;;18.20;73.00;;;;;;5056315;28;20442;-78
2022/10/23 07:57:17;;;;;;;0.50;0.50;;;18.60;72.80;;;;;;5056258;28;20433;-78
2022/10/23 07:59:43;;;;;;;0.83;0.83;;;19.20;72.50;;;;;;5056012;28;20442;-78
2022/10/23 08:02:11;;;;;;;0.60;0.53;;;19.60;71.50;;;;;;5055517;28;20478;-78
2022/10/23 08:04:38;;;;;;;0.70;0.70;;;19.60;71.40;;;;;;5055894;28;20482;-78
2022/10/23 08:07:04;;;;;;;0.63;0.63;;;19.10;72.60;;;;;;5055887;28;20462;-78
2022/10/23 08:09:33;;;;;;;0.60;0.60;;;18.90;73.90;;;;;;5055852;28;20443;-78
2022/10/23 08:12:01;;;;;;;0.60;0.50;;;18.60;74.70;;;;;;5056556;28;20470;-78
2022/10/23 08:14:28;;;;;;;0.70;0.60;;;18.70;74.70;;;;;;5055739;28;20512;-78
2022/10/23 08:16:54;;;;;;;0.93;0.60;;;18.30;76.00;;;;;;5055739;28;20521;-78
2022/10/23 08:19:21;;;;;;;0.70;0.70;;;18.50;75.90;;;;;;5055373;28;20451;-78
2022/10/23 08:21:48;;;;;;;0.80;0.60;;;18.80;74.80;;;;;;5055576;28;20467;-78
2022/10/23 08:24:15;;;;;;;0.60;0.60;;;18.70;75.90;;;;;;5055266;28;21013;-78
2022/10/23 08:26:42;;;;;;;0.60;0.60;;;18.80;75.40;;;;;;5055155;28;20459;-78
2022/10/23 08:29:10;;;;;;;1.67;0.80;;;18.90;75.40;;;;;;5054900;28;20462;-78
2022/10/23 08:31:36;;;;;;;0.77;0.57;;;18.70;76.30;;;;;;5055105;28;20467;-77
2022/10/23 08:34:03;;;;;;;0.60;0.50;;;18.80;76.00;;;;;;5055390;28;20454;-77
2022/10/23 08:36:30;;;;;;;0.60;0.50;;;18.80;76.60;;;;;;5055035;28;20959;-78
2022/10/23 08:38:57;;;;;;;0.87;0.50;;;18.70;76.50;;;;;;5055326;28;20821;-78
2022/10/23 08:41:28;;;;;;;0.60;0.53;;;18.40;78.10;;;;;;5055212;28;20462;-78
2022/10/23 08:44:02;;;;;;;0.70;0.70;;;18.50;78.00;;;;;;5055123;28;20470;-78
2022/10/23 08:46:34;;;;;;;0.60;0.60;;;18.40;78.20;;;;;;5054975;28;20430;-78
2022/10/23 08:49:16;;;;;;;0.60;0.60;;;18.00;79.40;;;;;;5054826;28;20779;-77
2022/10/23 08:51:48;;;;;;;0.60;0.60;;;18.10;79.10;;;;;;5054958;28;20469;-78
2022/10/23 08:54:19;;;;;;;0.60;0.50;;;18.00;78.60;;;;;;5055055;28;20436;-77
2022/10/23 08:56:50;;;;;;;0.60;0.50;;;18.30;78.10;;;;;;5054965;28;20438;-77
2022/10/23 08:59:25;;;;;;;0.60;0.60;;;18.30;75.60;;;;;;5054833;28;20427;-77
2022/10/23 09:01:58;;;;;;;0.60;0.50;;;18.40;72.90;;;;;;5054497;28;20552;-77
2022/10/23 09:04:25;;;;;;;0.70;0.60;;;18.20;71.30;;;;;;5054769;28;20490;-77
2022/10/23 09:06:59;;;;;;;0.60;0.50;;;18.00;73.10;;;;;;5054753;28;20450;-77
2022/10/23 09:09:46;;;;;;;0.60;0.50;;;18.00;75.30;;;;;;5054704;28;20431;-77
2022/10/23 09:12:15;;;;;;;0.60;0.60;;;18.00;74.80;;;;;;5054681;28;20469;-76
2022/10/23 09:15:07;;;;;;;0.70;0.60;;;18.20;73.50;;;;;;5054624;28;20453;-77
2022/10/23 09:17:37;;;;;;;0.60;0.60;;;18.30;73.70;;;;;;5055781;28;20476;-77
2022/10/23 09:20:13;;;;;;;0.70;0.60;;;18.30;73.80;;;;;;5054594;28;20438;-77
2022/10/23 09:22:41;;;;;;;0.60;0.50;;;18.40;73.80;;;;;;5054452;28;20478;-77
2022/10/23 09:25:10;;;;;;;0.60;0.50;;;18.40;72.60;;;;;;5054408;28;20475;-77
2022/10/23 09:27:37;;;;;;;0.50;0.50;;;18.40;72.20;;;;;;5054511;28;20525;-77
2022/10/23 09:30:04;;;;;;;0.50;0.50;;;18.50;72.50;;;;;;5054563;28;20458;-76
2022/10/23 09:32:38;;;;;;;0.60;0.50;;;18.60;72.20;;;;;;5054391;28;20524;-77
2022/10/23 09:35:06;;;;;;;0.60;0.60;;;18.70;71.10;;;;;;5054047;28;20937;-76
2022/10/23 09:37:34;;;;;;;0.70;0.70;;;18.60;70.40;;;;;;5054409;28;20525;-77
2022/10/23 09:40:17;;;;;;;0.60;0.50;;;18.60;70.90;;;;;;5054383;28;20450;-77
2022/10/23 09:42:56;;;;;;;0.83;0.50;;;18.80;72.50;;;;;;5054015;28;21012;-77
2022/10/23 09:45:26;;;;;;;0.60;0.50;;;18.70;71.30;;;;;;5053859;28;20470;-77
2022/10/23 09:48:05;;;;;;;0.60;0.60;;;18.70;71.10;;;;;;5054552;28;20450;-77
2022/10/23 09:50:32;;;;;;;0.50;0.50;;;18.90;71.10;;;;;;5054354;28;20426;-77
2022/10/23 09:52:59;;;;;;;0.70;0.60;;;19.10;72.00;;;;;;5053966;28;20975;-77
2022/10/23 09:55:27;;;;;;;0.63;0.50;;;19.00;70.40;;;;;;5053980;28;20449;-77
2022/10/23 09:57:54;;;;;;;0.80;0.60;;;19.20;71.30;;;;;;5053972;28;20442;-77
2022/10/23 10:00:23;;;;;;;0.53;0.50;;;19.40;71.40;;;;;;5054514;28;20454;-76
2022/10/23 10:02:58;;;;;;;0.50;0.50;;;19.50;71.30;;;;;;5053722;28;20458;-77
2022/10/23 10:05:29;;;;;;;0.70;0.60;;;19.60;70.10;;;;;;5053984;28;20514;-77
2022/10/23 10:07:59;;;;;;;0.50;0.50;;;19.60;71.10;;;;;;5055054;28;20818;-77
2022/10/23 10:10:32;;;;;;;0.60;0.50;;;19.70;70.60;;;;;;5052633;28;20455;-77
2022/10/23 10:13:03;;;;;;;0.60;0.60;;;19.80;70.10;;;;;;5053588;28;20914;-77
2022/10/23 10:15:37;;;;;;;0.60;0.60;;;19.90;70.10;;;;;;5053918;28;20430;-77
2022/10/23 10:18:14;;;;;;;0.60;0.50;;;20.00;70.50;;;;;;5053458;28;20902;-77
2022/10/23 10:20:59;;;;;;;0.70;0.60;;;19.90;68.80;;;;;;5053593;28;20441;-76
2022/10/23 10:23:32;;;;;;;1.10;0.50;;;19.90;70.20;;;;;;5053439;28;20458;-77
2022/10/23 10:26:07;;;;;;;0.60;0.57;;;20.10;70.60;;;;;;5053521;28;20438;-76
2022/10/23 10:28:53;;;;;;;0.60;0.50;;;20.30;69.10;;;;;;5053498;28;20438;-77
2022/10/23 10:31:26;;;;;;;0.60;0.60;;;20.20;68.20;;;;;;5053405;28;20462;-77
2022/10/23 10:34:06;;;;;;;0.60;0.50;;;20.40;70.60;;;;;;5053431;28;20459;-77
2022/10/23 10:36:46;;;;;;;0.70;0.50;;;20.50;68.60;;;;;;5053465;28;20430;-77
2022/10/23 10:39:25;;;;;;;0.60;0.60;;;20.60;68.50;;;;;;5053345;28;20434;-76
2022/10/23 10:42:03;;;;;;;0.80;0.50;;;20.40;67.70;;;;;;5052907;28;20973;-77
2022/10/23 10:44:58;;;;;;;0.50;0.50;;;20.30;68.40;;;;;;5053213;28;20466;-77
2022/10/23 10:47:32;;;;;;;0.60;0.60;;;20.60;68.60;;;;;;5053019;28;20435;-77
2022/10/23 10:50:07;;;;;;;0.53;0.53;;;20.70;68.50;;;;;;5053906;28;20439;-77
2022/10/23 10:52:40;;;;;;;0.50;0.50;;;20.80;68.10;;;;;;5053724;28;20467;-77
2022/10/23 10:55:17;;;;;;;0.60;0.60;;;20.60;67.80;;;;;;5057423;28;20430;-77
2022/10/23 10:57:48;;;;;;;0.70;0.70;;;20.70;68.80;;;;;;5057495;28;20433;-77
2022/10/23 11:00:18;;;;;;;0.50;0.50;;;20.80;67.80;;;;;;5057562;28;20446;-76
2022/10/23 11:02:47;;;;;;;0.60;0.60;;;20.90;68.50;;;;;;5057974;28;20976;-77
2022/10/23 11:05:30;;;;;;;0.60;0.60;;;21.00;68.00;;;;;;5058111;28;20489;-79
2022/10/23 11:08:03;;;;;;;0.60;0.60;;;21.10;67.50;;;;;;5058620;28;20442;-77
2022/10/23 11:10:32;;;;;;;0.60;0.50;;;21.20;65.40;;;;;;5057838;28;20431;-76
2022/10/23 11:12:59;;;;;;;0.50;0.50;;;21.10;65.00;;;;;;5058047;28;20457;-77
2022/10/23 11:15:33;;;;;;;0.60;0.60;;;21.00;65.40;;;;;;5058229;28;20446;-77
2022/10/23 11:18:06;;;;;;;0.67;0.60;;;21.00;66.30;;;;;;5058155;28;20453;-77
2022/10/23 11:20:55;;;;;;;0.70;0.60;;;21.10;66.80;;;;;;5056983;28;20442;-77
2022/10/23 11:23:50;;;;;;;0.60;0.50;;;20.80;67.20;;;;;;5056953;28;20427;-77
2022/10/23 11:26:29;;;;;;;0.50;0.50;;;20.90;68.20;;;;;;5056901;28;20442;-76
2022/10/23 11:29:20;;;;;;;0.53;0.50;;;20.90;67.70;;;;;;5056578;28;20792;-77
2022/10/23 11:32:01;;;;;;;0.50;0.50;;;21.00;66.60;;;;;;5056762;28;20458;-77
2022/10/23 11:34:55;;;;;;;0.60;0.50;;;21.00;67.40;;;;;;5056891;28;20427;-77
2022/10/23 11:37:23;;;;;;;0.60;0.60;;;21.00;67.80;;;;;;5054481;28;20465;-77
2022/10/23 11:40:13;;;;;;;0.60;0.60;;;20.90;67.10;;;;;;5056392;28;20561;-77
2022/10/23 11:42:48;;;;;;;0.60;0.50;;;20.80;68.20;;;;;;5056037;28;20462;-77
2022/10/23 11:45:35;;;;;;;0.60;0.60;;;21.00;68.10;;;;;;5055950;28;21000;-77
2022/10/23 11:48:04;;;;;;;0.50;0.50;;;21.00;67.90;;;;;;5056176;28;20446;-77
2022/10/23 11:50:33;;;;;;;0.50;0.50;;;21.00;67.90;;;;;;5056852;28;20447;-77
2022/10/23 11:53:09;;;;;;;0.70;0.60;;;21.10;66.80;;;;;;5056413;28;20450;-77
2022/10/23 11:55:37;;;;;;;0.60;0.60;;;21.30;67.60;;;;;;5056923;28;20431;-77
2022/10/23 11:58:19;;;;;;;0.57;0.50;;;21.50;67.50;;;;;;5056272;28;20454;-77
2022/10/23 12:00:55;;;;;;;0.60;0.50;;;21.70;67.50;;;;;;5058067;28;20517;-76
2022/10/23 12:03:27;;;;;;;0.70;0.70;;;21.80;66.10;;;;;;5059305;28;20430;-77
2022/10/23 12:06:00;;;;;;;0.53;0.50;;;21.80;65.90;;;;;;5056821;28;20471;-77
2022/10/23 12:08:29;;;;;;;0.70;0.60;;;22.00;67.20;;;;;;5059278;28;20435;-75
2022/10/23 12:10:57;;;;;;;0.60;0.60;;;22.10;66.20;;;;;;5059427;28;20463;-77
2022/10/23 12:13:46;;;;;;;0.60;0.50;;;22.30;66.00;;;;;;5058955;28;20453;-77
2022/10/23 12:16:13;;;;;;;1.53;0.60;;;22.30;65.80;;;;;;5053744;28;20454;-77
2022/10/23 12:18:48;;;;;;;0.70;0.70;;;22.30;65.10;;;;;;5059019;28;20450;-77
2022/10/23 12:21:19;;;;;;;0.50;0.50;;;22.30;66.10;;;;;;5058328;28;20458;-77
2022/10/23 12:24:02;;;;;;;0.80;0.60;;;22.40;64.90;;;;;;5059092;28;20462;-78
2022/10/23 12:26:53;;;;;;;0.70;0.53;;;22.50;65.20;;;;;;5058340;28;20435;-77
2022/10/23 12:29:28;;;;;;;0.70;0.60;;;22.60;65.30;;;;;;5058559;28;20449;-77
2022/10/23 12:32:02;;;;;;;0.60;0.50;;;22.70;64.80;;;;;;5060428;28;20470;-77
2022/10/23 12:34:41;;;;;;;0.60;0.60;;;22.60;64.40;;;;;;5060998;28;20431;-77
2022/10/23 12:37:28;;;;;;;0.60;0.57;;;22.40;64.20;;;;;;5059494;28;20446;-77
2022/10/23 12:39:56;;;;;;;0.70;0.60;;;22.40;65.30;;;;;;5059717;28;20430;-75
2022/10/23 12:42:26;;;;;;;0.53;0.50;;;22.50;65.70;;;;;;5058823;28;20478;-76
2022/10/23 12:45:00;;;;;;;0.60;0.60;;;22.60;64.10;;;;;;5058252;28;20470;-77
2022/10/23 12:47:28;;;;;;;0.50;0.50;;;22.60;63.70;;;;;;5056643;28;20446;-77
2022/10/23 12:49:55;;;;;;;0.60;0.50;;;22.60;64.70;;;;;;5058819;28;20798;-76
2022/10/23 12:52:24;;;;;;;1.00;0.60;;;22.90;64.70;;;;;;5057167;28;20966;-77
2022/10/23 12:54:51;;;;;;;0.60;0.60;;;23.30;65.10;;;;;;5058184;28;20512;-76
2022/10/23 12:57:21;;;;;;;0.70;0.70;;;23.90;64.80;;;;;;5056312;28;20447;-77
2022/10/23 12:59:51;;;;;;;0.60;0.50;;;24.30;62.50;;;;;;5056638;28;20435;-76
2022/10/23 13:02:25;;;;;;;0.53;0.50;;;24.70;61.60;;;;;;5055584;28;20486;-77
2022/10/23 13:04:54;;;;;;;0.70;0.60;;;25.40;59.90;;;;;;5056384;28;20466;-76
2022/10/23 13:07:23;;;;;;;0.53;0.50;;;25.70;56.50;;;;;;5055002;28;20450;-77
2022/10/23 13:09:50;;;;;;;0.70;0.60;;;26.00;56.00;;;;;;5054927;28;20457;-75
2022/10/23 13:12:23;;;;;;;0.60;0.60;;;26.40;55.40;;;;;;5054556;28;21032;-76
2022/10/23 13:15:00;;;;;;;0.57;0.50;;;27.00;54.40;;;;;;5055003;28;20435;-76
2022/10/23 13:17:38;;;;;;;0.90;0.70;;;28.40;52.20;;;;;;5054567;28;20434;-76
2022/10/23 13:20:10;;;;;;;0.70;0.70;;;30.50;49.20;;;;;;5054616;28;20446;-76
2022/10/23 13:23:09;;;;;;;0.60;0.50;;;32.00;47.30;;;;;;5054303;28;20525;-76
2022/10/23 13:25:37;;;;;;;0.70;0.50;;;33.00;44.90;;;;;;5054358;28;20463;-76
2022/10/23 13:28:24;;;;;;;0.50;0.50;;;33.80;43.30;;;;;;5054011;28;20821;-76
2022/10/23 13:31:05;;;;;;;0.60;0.60;;;33.20;42.70;;;;;;5053977;28;20473;-76
2022/10/23 13:33:34;;;;;;;0.60;0.60;;;31.50;45.60;;;;;;5054184;28;20431;-76
2022/10/23 13:36:05;;;;;;;0.70;0.70;;;31.10;47.60;;;;;;5054300;28;20482;-75
2022/10/23 13:38:33;;;;;;;0.60;0.50;;;31.40;47.80;;;;;;5054139;28;20438;-76
2022/10/23 13:41:02;;;;;;;1.13;0.50;;;31.70;46.20;;;;;;5053975;28;20463;-76
2022/10/23 13:43:30;;;;;;;0.53;0.50;;;31.40;46.90;;;;;;5054009;28;20457;-76
2022/10/23 13:45:59;;;;;;;0.87;0.67;;;30.80;47.80;;;;;;5053858;28;20552;-75
2022/10/23 13:48:26;;;;;;;0.60;0.60;;;29.70;48.80;;;;;;5053981;28;20531;-74
2022/10/23 13:50:54;;;;;;;0.60;0.53;;;28.70;51.70;;;;;;5053777;28;20523;-75
2022/10/23 13:53:20;;;;;;;0.60;0.60;;;27.70;52.90;;;;;;5055813;28;20802;-75
2022/10/23 13:55:51;;;;;;;0.80;0.80;;;27.20;55.30;;;;;;5054642;28;20447;-76
2022/10/23 13:58:18;;;;;;;1.10;0.70;;;26.80;56.50;;;;;;5054224;28;20469;-75
2022/10/23 14:00:48;;;;;;;0.60;0.50;;;26.40;58.00;;;;;;5053563;28;20517;-75
2022/10/23 14:03:19;;;;;;;0.77;0.60;;;25.90;57.50;;;;;;5053798;28;20435;-75
2022/10/23 14:05:45;;;;;;;0.60;0.60;;;25.50;59.30;;;;;;5053365;28;20996;-74
2022/10/23 14:08:12;;;;;;;0.70;0.60;;;25.30;60.50;;;;;;5053746;28;20443;-75
2022/10/23 14:10:39;;;;;;;0.60;0.60;;;25.00;60.00;;;;;;5053432;28;20447;-75
2022/10/23 14:13:05;;;;;;;0.70;0.60;;;24.80;62.70;;;;;;5053772;28;20473;-75
2022/10/23 14:15:32;;;;;;;0.70;0.60;;;24.50;63.30;;;;;;5054056;28;20442;-76
2022/10/23 14:17:59;;;;;;;0.60;0.50;;;24.30;64.00;;;;;;5053990;28;20804;-76
2022/10/23 14:20:27;;;;;;;0.70;0.70;;;24.10;65.40;;;;;;5053920;28;20496;-75
2022/10/23 14:22:54;;;;;;;0.60;0.60;;;24.00;64.50;;;;;;5053614;28;20450;-76
2022/10/23 14:25:22;;;;;;;0.60;0.60;;;23.90;64.80;;;;;;5053459;28;20486;-74
2022/10/23 14:27:48;;;;;;;0.70;0.63;;;23.80;67.40;;;;;;5052747;28;20449;-76
2022/10/23 14:30:15;;;;;;;0.60;0.60;;;23.60;67.70;;;;;;5053597;28;20447;-77
2022/10/23 14:32:43;;;;;;;0.60;0.60;;;23.50;68.70;;;;;;5052866;28;20901;-74
2022/10/23 14:35:10;;;;;;;0.60;0.60;;;23.40;68.50;;;;;;5052950;28;20930;-75
2022/10/23 14:37:38;;;;;;;0.60;0.60;;;23.30;69.60;;;;;;5053459;28;20826;-76
2022/10/23 14:40:06;;;;;;;1.20;0.57;;;23.20;71.80;;;;;;5053257;28;20442;-75
2022/10/23 14:42:33;;;;;;;0.60;0.50;;;23.20;71.70;;;;;;5053095;28;20466;-74
2022/10/23 14:45:01;;;;;;;0.60;0.60;;;23.10;69.70;;;;;;5053109;28;20493;-75
2022/10/23 14:47:28;;;;;;;0.60;0.60;;;23.10;70.60;;;;;;5053170;28;20474;-73
2022/10/23 14:49:55;;;;;;;0.90;0.60;;;23.00;71.10;;;;;;5053112;28;20451;-74
2022/10/23 14:52:22;;;;;;;0.70;0.60;;;23.00;71.40;;;;;;5053387;28;20479;-75
2022/10/23 14:54:50;;;;;;;0.60;0.60;;;22.90;70.30;;;;;;5055403;28;20458;-74
2022/10/23 14:57:19;;;;;;;0.60;0.60;;;22.80;69.90;;;;;;5055497;28;20458;-74
2022/10/23 14:59:46;;;;;;;0.60;0.60;;;22.80;71.40;;;;;;5055317;28;20942;-73
2022/10/23 15:02:13;;;;;;;0.60;0.60;;;22.80;72.00;;;;;;5055452;28;20494;-74
2022/10/23 15:04:40;;;;;;;0.70;0.70;;;22.90;71.70;;;;;;5056145;28;20950;-74
2022/10/23 15:07:07;;;;;;;0.60;0.60;;;22.90;71.60;;;;;;5055851;28;20451;-74
2022/10/23 15:09:35;;;;;;;0.80;0.70;;;23.00;72.40;;;;;;5056968;28;20457;-75
2022/10/23 15:12:04;;;;;;;1.87;0.87;;;23.10;71.80;;;;;;5054732;28;20544;-75
2022/10/23 15:14:31;;;;;;;0.70;0.60;;;23.00;71.70;;;;;;5054450;28;20510;-76
2022/10/23 15:16:58;;;;;;;0.60;0.60;;;22.80;72.00;;;;;;5055737;28;20933;-75
2022/10/23 15:19:25;;;;;;;1.33;0.80;;;22.80;72.30;;;;;;5054368;28;20538;-75
2022/10/23 15:21:51;;;;;;;0.70;0.70;;;22.90;71.80;;;;;;5054100;28;20494;-75
2022/10/23 15:24:19;;;;;;;0.80;0.80;;;22.90;71.70;;;;;;5054321;28;20435;-75
2022/10/23 15:26:46;;;;;;;0.60;0.60;;;22.90;72.10;;;;;;5053880;28;20487;-75
2022/10/23 15:29:15;;;;;;;2.30;0.60;;;22.80;71.40;;;;;;5054185;28;20454;-75
2022/10/23 15:31:44;;;;;;;0.57;0.50;;;22.80;71.60;;;;;;5054666;28;20530;-76
2022/10/23 15:34:13;;;;;;;1.17;0.70;;;22.70;71.90;;;;;;5054936;28;20458;-75
2022/10/23 15:36:39;;;;;;;0.70;0.60;;;22.80;72.00;;;;;;5054890;28;20451;-76
2022/10/23 15:39:09;;;;;;;0.70;0.70;;;22.70;71.00;;;;;;5055447;28;20457;-76
2022/10/23 15:41:37;;;;;;;0.77;0.77;;;22.70;71.20;;;;;;5057738;28;20466;-76
2022/10/23 15:44:05;;;;;;;0.83;0.70;;;22.70;71.50;;;;;;5057494;28;20435;-77
2022/10/23 15:46:33;;;;;;;0.90;0.73;;;22.60;72.20;;;;;;5056741;28;20997;-75
2022/10/23 15:49:00;;;;;;;0.70;0.70;;;22.50;72.80;;;;;;5057163;28;20480;-76
2022/10/23 15:51:27;;;;;;;0.70;0.70;;;22.40;72.90;;;;;;5057618;28;20475;-75
2022/10/23 15:53:55;;;;;;;0.80;0.67;;;22.40;73.10;;;;;;5058391;28;20450;-76
2022/10/23 15:56:22;;;;;;;1.20;0.70;;;22.30;73.30;;;;;;5058762;28;20536;-75
2022/10/23 15:58:49;;;;;;;0.80;0.70;;;22.30;73.50;;;;;;5058490;28;20500;-75
2022/10/23 16:01:16;;;;;;;0.73;0.60;;;22.10;73.80;;;;;;5058922;28;20489;-75
2022/10/23 16:03:44;;;;;;;1.30;0.70;;;22.10;73.90;;;;;;5059468;28;20447;-75